Time;durP1;ratioP1;P1;durP2;ratioP2;P2;SDS_P1;SDS_P2;PMS_P1;PMS_P2;Temp;Humidity;BMP_temperature;BMP_pressure;BME280_temperature;BME280_humidity;BME280_pressure;Samples;Min_cycle;Max_cycle;Signal;HPM_P1;HPM_P2
2021/05/21 00:02:11;;;;;;;1999.90;999.90;;;14.80;98.50;;;;;;5021673;28;20173;-81
2021/05/21 00:04:37;;;;;;;1999.90;999.90;;;14.90;98.50;;;;;;5020623;28;20166;-81
2021/05/21 00:07:03;;;;;;;1999.90;999.90;;;14.80;97.50;;;;;;5021693;28;20163;-81
2021/05/21 00:09:28;;;;;;;1999.90;999.90;;;14.90;98.00;;;;;;5020980;28;20245;-81
2021/05/21 00:11:54;;;;;;;1999.90;999.90;;;14.90;97.00;;;;;;5020076;28;20173;-81
2021/05/21 00:14:20;;;;;;;1999.90;999.90;;;14.80;96.40;;;;;;5019817;28;20260;-80
2021/05/21 00:16:46;;;;;;;1999.90;999.90;;;14.80;97.30;;;;;;5020016;28;20166;-81
2021/05/21 00:19:11;;;;;;;1999.90;999.90;;;14.80;96.80;;;;;;5021521;28;20182;-81
2021/05/21 00:21:37;;;;;;;1999.90;999.90;;;14.70;97.60;;;;;;5021957;28;20506;-81
2021/05/21 00:24:03;;;;;;;1999.90;999.90;;;14.70;98.00;;;;;;5021401;28;20206;-81
2021/05/21 00:26:29;;;;;;;1999.90;999.90;;;14.70;98.50;;;;;;5020871;28;20409;-81
2021/05/21 00:28:56;;;;;;;1999.90;999.90;;;14.70;98.40;;;;;;5021102;28;20444;-81
2021/05/21 00:31:22;;;;;;;1999.90;999.90;;;14.80;97.50;;;;;;5021231;28;20431;-81
2021/05/21 00:33:49;;;;;;;1999.90;999.90;;;14.70;99.10;;;;;;5021136;28;20417;-81
2021/05/21 00:36:14;;;;;;;1999.90;999.90;;;14.70;99.90;;;;;;5021293;28;20177;-81
2021/05/21 00:38:40;;;;;;;1999.90;999.90;;;14.60;99.10;;;;;;5021478;28;20428;-81
2021/05/21 00:41:06;;;;;;;1999.90;999.90;;;14.60;99.10;;;;;;5019454;28;20197;-82
2021/05/21 00:43:32;;;;;;;1999.90;999.90;;;14.60;99.70;;;;;;5003689;28;20414;-80
2021/05/21 00:45:59;;;;;;;1999.90;999.90;;;14.60;99.10;;;;;;5020745;28;20245;-80
2021/05/21 00:48:25;;;;;;;1999.90;999.90;;;14.60;98.70;;;;;;5019488;28;20186;-80
2021/05/21 00:50:53;;;;;;;1999.90;999.90;;;14.60;99.10;;;;;;5020878;28;20415;-80
2021/05/21 00:53:21;;;;;;;1999.90;999.90;;;14.60;99.90;;;;;;5020272;28;20205;-80
2021/05/21 00:55:47;;;;;;;1999.90;999.90;;;14.70;99.90;;;;;;5021038;28;20409;-81
2021/05/21 00:58:13;;;;;;;1999.90;999.90;;;14.70;99.90;;;;;;5020938;28;20793;-80
2021/05/21 01:00:39;;;;;;;1999.90;999.90;;;14.60;99.80;;;;;;5020416;28;20451;-81
2021/05/21 01:03:05;;;;;;;1999.90;999.90;;;14.60;99.90;;;;;;5020035;28;20409;-80
2021/05/21 01:05:31;;;;;;;1999.90;999.90;;;14.60;99.90;;;;;;5020229;28;20459;-81
2021/05/21 01:07:57;;;;;;;1999.90;999.90;;;14.60;99.90;;;;;;5020073;28;20253;-81
2021/05/21 01:10:23;;;;;;;1999.90;999.90;;;14.60;99.90;;;;;;5020205;28;20447;-81
2021/05/21 01:12:49;;;;;;;1999.90;999.90;;;14.50;99.90;;;;;;5019076;28;20181;-81
2021/05/21 01:15:15;;;;;;;1999.90;999.90;;;14.50;99.90;;;;;;5020056;28;20409;-80
2021/05/21 01:17:40;;;;;;;1999.90;999.90;;;14.50;99.90;;;;;;5020248;28;20186;-81
2021/05/21 01:20:12;;;;;;;1999.90;999.90;;;14.50;99.90;;;;;;5019470;28;20451;-80
2021/05/21 01:22:38;;;;;;;1999.90;999.90;;;14.50;99.90;;;;;;5018777;28;20208;-81
2021/05/21 01:25:08;;;;;;;1999.90;999.90;;;14.50;99.90;;;;;;5019819;28;20408;-81
2021/05/21 01:27:34;;;;;;;1999.90;999.90;;;14.50;99.90;;;;;;5019459;28;20460;-80
2021/05/21 01:29:59;;;;;;;1999.90;999.90;;;14.50;99.90;;;;;;5019682;28;20412;-80
2021/05/21 01:32:25;;;;;;;1999.90;999.90;;;14.60;99.90;;;;;;5019889;28;20451;-81
2021/05/21 01:34:51;;;;;;;1999.90;999.90;;;14.60;99.90;;;;;;5018818;28;20916;-80
2021/05/21 01:37:20;;;;;;;1999.90;999.90;;;14.50;99.90;;;;;;5019566;28;20169;-80
2021/05/21 01:39:46;;;;;;;1999.90;999.90;;;14.50;99.90;;;;;;5018328;28;20202;-81
2021/05/21 01:42:13;;;;;;;1999.90;999.90;;;14.50;99.90;;;;;;5018350;28;20931;-81
2021/05/21 01:44:40;;;;;;;1999.90;999.90;;;14.50;99.90;;;;;;5019929;28;20412;-80
2021/05/21 01:47:09;;;;;;;1999.90;999.90;;;14.50;99.90;;;;;;5018657;28;20471;-81
2021/05/21 01:49:35;;;;;;;1999.90;999.90;;;14.40;99.90;;;;;;5019359;28;20404;-80
2021/05/21 01:52:00;;;;;;;1999.90;999.90;;;14.40;99.90;;;;;;5019723;28;20466;-81
2021/05/21 01:54:28;;;;;;;1999.90;999.90;;;14.40;99.90;;;;;;5019297;28;20216;-81
2021/05/21 01:56:58;;;;;;;1999.90;999.90;;;14.30;99.90;;;;;;5019482;28;20158;-81
2021/05/21 01:59:24;;;;;;;1999.90;999.90;;;14.30;99.90;;;;;;5018785;28;20475;-80
2021/05/21 02:01:51;;;;;;;1999.90;999.90;;;14.30;99.90;;;;;;5017939;28;20421;-81
2021/05/21 02:04:37;;;;;;;1999.90;999.90;;;14.30;99.90;;;;;;5019423;28;20908;-80
2021/05/21 02:07:04;;;;;;;1999.90;999.90;;;14.30;99.90;;;;;;5019051;28;20428;-80
2021/05/21 02:09:55;;;;;;;1999.90;999.90;;;14.30;99.90;;;;;;5018896;28;20773;-81
2021/05/21 02:12:24;;;;;;;1999.90;999.90;;;14.20;99.90;;;;;;5017735;28;20943;-81
2021/05/21 02:14:51;;;;;;;1999.90;999.90;;;14.30;99.90;;;;;;5019547;28;20769;-81
2021/05/21 02:17:17;;;;;;;1999.90;999.90;;;14.10;99.90;;;;;;5018831;28;20404;-80
2021/05/21 02:19:42;;;;;;;1999.90;999.90;;;14.20;99.90;;;;;;5051332;22;20483;-81
2021/05/21 02:22:09;;;;;;;1999.90;999.90;;;14.20;99.90;;;;;;5038187;28;20529;-81
2021/05/21 02:24:35;;;;;;;1999.90;999.90;;;14.20;99.90;;;;;;5038997;28;20161;-80
2021/05/21 02:27:01;;;;;;;1999.90;999.90;;;14.20;99.90;;;;;;5038369;28;20729;-81
2021/05/21 02:29:27;;;;;;;1999.90;999.90;;;14.20;99.90;;;;;;5053966;28;20427;-81
2021/05/21 02:31:52;;;;;;;1999.90;999.90;;;14.20;99.90;;;;;;5039270;28;20404;-80
2021/05/21 02:34:18;;;;;;;1999.90;999.90;;;14.20;99.90;;;;;;5054085;28;20219;-81
2021/05/21 02:36:44;;;;;;;1999.90;999.90;;;14.20;99.90;;;;;;5038405;28;20251;-81
2021/05/21 02:39:10;;;;;;;1999.90;999.90;;;14.20;99.90;;;;;;5039419;28;20181;-80
2021/05/21 02:41:35;;;;;;;1999.90;999.90;;;14.20;99.90;;;;;;5038505;28;20470;-81
2021/05/21 02:44:01;;;;;;;1999.90;999.90;;;14.10;99.90;;;;;;5053837;28;20219;-81
2021/05/21 02:46:27;;;;;;;1999.90;999.90;;;14.10;99.90;;;;;;5054086;28;20162;-80
2021/05/21 02:48:53;;;;;;;1999.90;999.90;;;14.00;99.90;;;;;;5038463;28;20996;-81
2021/05/21 02:51:18;;;;;;;1999.90;999.90;;;14.00;99.90;;;;;;5038264;28;20165;-81
2021/05/21 02:53:44;;;;;;;1999.90;999.90;;;14.00;99.90;;;;;;5038063;28;20629;-81
2021/05/21 02:56:33;;;;;;;;;;;;;;;;;;;;;
2021/05/21 02:58:59;;;;;;;1999.90;999.90;;;13.90;99.90;;;;;;5038512;28;20778;-81
2021/05/21 03:01:24;;;;;;;1999.90;999.90;;;13.80;99.90;;;;;;5038588;28;20475;-81
2021/05/21 03:03:50;;;;;;;1999.90;999.90;;;13.80;99.90;;;;;;5038654;28;20442;-81
2021/05/21 03:06:16;;;;;;;1999.90;999.90;;;13.80;99.90;;;;;;5038377;28;20164;-81
2021/05/21 03:08:41;;;;;;;1999.90;999.90;;;13.70;99.90;;;;;;5037853;28;20536;-81
2021/05/21 03:11:07;;;;;;;1999.90;999.90;;;13.70;99.90;;;;;;5053670;28;20268;-81
2021/05/21 03:13:33;;;;;;;1999.90;999.90;;;13.70;99.90;;;;;;5038604;28;20162;-81
2021/05/21 03:15:58;;;;;;;1999.90;999.90;;;13.70;99.90;;;;;;5038615;28;20188;-81
2021/05/21 03:18:24;;;;;;;1999.90;999.90;;;13.70;99.90;;;;;;5038236;28;20197;-81
2021/05/21 03:20:51;;;;;;;1999.90;999.90;;;13.60;99.90;;;;;;5038424;28;20197;-81
2021/05/21 03:23:17;;;;;;;1999.90;999.90;;;13.60;99.90;;;;;;5053816;28;20165;-81
2021/05/21 03:25:43;;;;;;;1999.90;999.90;;;13.60;99.90;;;;;;5038743;28;20403;-80
2021/05/21 03:28:16;;;;;;;1999.90;999.90;;;13.60;99.90;;;;;;5053959;28;20928;-81
2021/05/21 03:30:42;;;;;;;1999.90;999.90;;;13.60;99.90;;;;;;5038570;28;20380;-81
2021/05/21 03:33:08;;;;;;;1999.90;999.90;;;13.60;99.90;;;;;;5053875;28;20423;-81
2021/05/21 03:35:37;;;;;;;1999.90;999.90;;;13.60;99.90;;;;;;5041742;28;20181;-81
2021/05/21 03:38:04;;;;;;;1999.90;999.90;;;13.50;99.90;;;;;;5057655;28;20428;-81
2021/05/21 03:40:31;;;;;;;1999.90;999.90;;;13.50;99.90;;;;;;5042059;28;20448;-81
2021/05/21 03:42:57;;;;;;;1999.90;999.90;;;13.40;99.90;;;;;;5042402;28;20415;-81
2021/05/21 03:45:23;;;;;;;1999.90;999.90;;;13.50;99.90;;;;;;5041865;28;20435;-81
2021/05/21 03:47:49;;;;;;;1999.90;999.90;;;13.50;99.90;;;;;;5041891;28;20608;-81
2021/05/21 03:50:18;;;;;;;1999.90;999.90;;;13.40;99.90;;;;;;5042670;28;20172;-81
2021/05/21 03:52:45;;;;;;;1999.90;999.90;;;13.30;99.90;;;;;;5042780;28;20166;-81
2021/05/21 03:55:12;;;;;;;1999.90;999.90;;;13.30;99.90;;;;;;5042558;28;20826;-81
2021/05/21 03:57:38;;;;;;;1999.90;999.90;;;13.30;99.90;;;;;;5041612;28;20441;-81
2021/05/21 04:00:06;;;;;;;1999.90;999.90;;;13.30;99.90;;;;;;5041608;28;20447;-81
2021/05/21 04:02:31;;;;;;;1999.90;999.90;;;13.30;99.90;;;;;;5042013;28;20526;-81
2021/05/21 04:04:57;;;;;;;1999.90;999.90;;;13.10;99.90;;;;;;5042044;28;20403;-81
2021/05/21 04:07:23;;;;;;;1999.90;999.90;;;13.00;99.90;;;;;;5042621;28;20161;-81
2021/05/21 04:09:48;;;;;;;1999.90;999.90;;;13.00;99.90;;;;;;5041994;28;20180;-81
2021/05/21 04:12:14;;;;;;;1999.90;999.90;;;13.00;99.90;;;;;;5042040;28;20165;-81
2021/05/21 04:14:40;;;;;;;1999.90;999.90;;;13.00;99.90;;;;;;5041834;28;20345;-81
2021/05/21 04:17:06;;;;;;;1999.90;999.90;;;13.00;99.90;;;;;;5040822;28;20173;-81
2021/05/21 04:19:31;;;;;;;1999.90;999.90;;;13.00;99.90;;;;;;5041129;28;20680;-81
2021/05/21 04:21:57;;;;;;;1999.90;999.90;;;12.90;99.90;;;;;;5040848;28;20584;-81
2021/05/21 04:24:25;;;;;;;1999.90;999.90;;;13.00;99.90;;;;;;5041811;28;20169;-81
2021/05/21 04:26:54;;;;;;;1999.90;999.90;;;12.90;99.90;;;;;;5041955;28;20168;-81
2021/05/21 04:29:19;;;;;;;1999.90;999.90;;;12.90;99.90;;;;;;5041957;28;20416;-81
2021/05/21 04:31:45;;;;;;;1999.90;999.90;;;13.00;99.90;;;;;;5042008;28;20408;-81
2021/05/21 04:34:10;;;;;;;1999.90;999.90;;;13.00;99.90;;;;;;5040414;28;20227;-81
2021/05/21 04:36:36;;;;;;;1999.90;999.90;;;13.00;99.90;;;;;;5041276;28;20225;-81
2021/05/21 04:39:04;;;;;;;1999.90;999.90;;;12.90;99.90;;;;;;5041350;28;20181;-81
2021/05/21 04:41:30;;;;;;;1999.90;999.90;;;13.00;99.90;;;;;;5056613;28;20689;-80
2021/05/21 04:43:56;;;;;;;1999.90;999.90;;;13.10;99.90;;;;;;5040606;28;20491;-81
2021/05/21 04:46:22;;;;;;;1999.90;999.90;;;13.30;99.90;;;;;;5040594;28;20871;-82
2021/05/21 04:48:47;;;;;;;1999.90;999.90;;;13.50;99.90;;;;;;5040242;28;20185;-81
2021/05/21 04:51:13;;;;;;;1999.90;999.90;;;13.80;99.90;;;;;;5041229;28;20169;-81
2021/05/21 04:53:41;;;;;;;1999.90;999.90;;;14.00;99.90;;;;;;5041916;28;20165;-81
2021/05/21 04:56:08;;;;;;;1999.90;999.90;;;14.20;99.90;;;;;;5041485;28;20164;-81
2021/05/21 04:58:35;;;;;;;1999.90;999.90;;;14.40;99.90;;;;;;5041318;28;20447;-81
2021/05/21 05:01:01;;;;;;;1999.90;999.90;;;14.60;99.90;;;;;;5040920;28;20980;-81
2021/05/21 05:03:28;;;;;;;1999.90;999.90;;;14.60;99.90;;;;;;5041556;28;20461;-81
2021/05/21 05:05:53;;;;;;;1999.90;999.90;;;14.80;99.90;;;;;;5040797;28;20423;-81
2021/05/21 05:08:25;;;;;;;1999.90;999.90;;;14.80;99.90;;;;;;5039236;28;20428;-81
2021/05/21 05:10:51;;;;;;;1999.90;999.90;;;14.80;99.90;;;;;;5055961;28;20711;-81
2021/05/21 05:13:17;;;;;;;1999.90;999.90;;;14.90;99.90;;;;;;5040693;28;20440;-81
2021/05/21 05:15:44;;;;;;;1999.90;999.90;;;15.00;99.90;;;;;;5040529;28;20161;-81
2021/05/21 05:18:10;;;;;;;1999.90;999.90;;;15.10;99.90;;;;;;5040088;28;20431;-81
2021/05/21 05:20:36;;;;;;;1999.90;999.90;;;15.10;99.90;;;;;;5040060;28;20466;-81
2021/05/21 05:23:02;;;;;;;1999.90;999.90;;;15.00;99.90;;;;;;5039921;28;20467;-81
2021/05/21 05:25:29;;;;;;;1999.90;999.90;;;15.00;99.90;;;;;;5040445;28;20915;-81
2021/05/21 05:27:55;;;;;;;1999.90;999.90;;;15.10;99.90;;;;;;5040644;28;20419;-81
2021/05/21 05:30:22;;;;;;;1999.90;999.90;;;14.90;99.90;;;;;;5126824;22;20405;-84
2021/05/21 05:32:48;;;;;;;1999.90;999.90;;;14.90;99.90;;;;;;5039900;28;20435;-84
2021/05/21 05:35:15;;;;;;;1999.90;999.90;;;15.00;99.90;;;;;;5023096;28;20462;-84
2021/05/21 05:37:41;;;;;;;1999.90;999.90;;;15.10;99.90;;;;;;5039813;28;20439;-84
2021/05/21 05:40:07;;;;;;;1999.90;999.90;;;15.00;99.90;;;;;;5039903;28;20478;-84
2021/05/21 05:42:34;;;;;;;1999.90;999.90;;;15.00;99.90;;;;;;5039714;28;20413;-85
2021/05/21 05:44:59;;;;;;;1999.90;999.90;;;14.90;99.90;;;;;;5040563;28;20403;-84
2021/05/21 05:47:25;;;;;;;1999.90;999.90;;;14.80;99.90;;;;;;5039214;28;20404;-84
2021/05/21 05:49:51;;;;;;;1999.90;999.90;;;14.70;99.90;;;;;;5038037;28;20256;-84
2021/05/21 05:52:17;;;;;;;1999.90;999.90;;;14.80;99.90;;;;;;5036473;28;20234;-84
2021/05/21 05:54:45;;;;;;;1999.90;999.90;;;14.80;99.90;;;;;;5038088;28;20235;-83
2021/05/21 05:57:11;;;;;;;1999.90;999.90;;;14.70;99.90;;;;;;5037927;28;20173;-83
2021/05/21 05:59:38;;;;;;;1999.90;999.90;;;14.70;99.90;;;;;;5041110;28;20438;-85
2021/05/21 06:02:04;;;;;;;1999.90;999.90;;;14.80;99.90;;;;;;5040217;28;20166;-84
2021/05/21 06:04:30;;;;;;;1999.90;999.90;;;14.80;99.90;;;;;;5038918;28;20426;-84
2021/05/21 06:06:55;;;;;;;1999.90;999.90;;;14.80;99.90;;;;;;5038025;28;20165;-85
2021/05/21 06:09:27;;;;;;;1999.90;999.90;;;14.80;99.90;;;;;;5039053;28;20189;-85
2021/05/21 06:12:34;;;;;;;1999.90;999.90;;;14.80;99.90;;;;;;5039658;28;20153;-85
2021/05/21 06:15:09;;;;;;;1999.90;999.90;;;15.00;99.90;;;;;;5037706;28;20411;-83
2021/05/21 06:18:16;;;;;;;1999.90;999.90;;;15.10;99.90;;;;;;5037427;28;20493;-84
2021/05/21 06:21:02;;;;;;;1999.90;999.90;;;15.10;99.90;;;;;;4980671;28;20483;-84
2021/05/21 06:23:29;;;;;;;1999.90;999.90;;;15.00;99.90;;;;;;5033742;28;20412;-84
2021/05/21 06:28:45;;;;;;;1999.90;999.90;;;15.10;99.90;;;;;;5038382;28;20435;-83
2021/05/21 06:31:11;;;;;;;1999.90;999.90;;;15.20;99.90;;;;;;5037637;28;20507;-84
2021/05/21 06:33:43;;;;;;;1999.90;999.90;;;15.10;99.90;;;;;;5036762;28;20451;-83
2021/05/21 06:36:09;;;;;;;1999.90;999.90;;;15.10;99.90;;;;;;5036694;28;20412;-81
2021/05/21 06:38:35;;;;;;;1999.90;999.90;;;15.10;99.90;;;;;;5036847;28;20433;-82
2021/05/21 06:41:01;;;;;;;1999.90;999.90;;;15.10;99.90;;;;;;5037280;28;20450;-82
2021/05/21 06:43:29;;;;;;;1999.90;999.90;;;15.20;99.90;;;;;;5036155;28;20412;-82
2021/05/21 06:45:55;;;;;;;1999.90;999.90;;;15.20;99.90;;;;;;5036066;28;20169;-84
2021/05/21 06:48:21;;;;;;;1999.90;999.90;;;15.30;99.90;;;;;;5037100;28;20927;-82
2021/05/21 06:50:48;;;;;;;1999.90;999.90;;;15.50;99.90;;;;;;5034039;28;20998;-83
2021/05/21 06:53:14;;;;;;;1999.90;999.90;;;15.40;99.90;;;;;;5035067;28;20729;-83
2021/05/21 06:55:39;;;;;;;1999.90;999.90;;;15.40;99.90;;;;;;5036642;28;20415;-84
2021/05/21 06:58:06;;;;;;;1999.90;999.90;;;15.50;99.90;;;;;;5035114;28;20512;-82
2021/05/21 07:00:36;;;;;;;1999.90;999.90;;;15.50;99.90;;;;;;5036609;28;20181;-82
2021/05/21 07:03:01;;;;;;;1999.90;999.90;;;15.60;99.90;;;;;;5035227;28;20448;-82
2021/05/21 07:05:27;;;;;;;1999.90;999.90;;;15.70;99.90;;;;;;5036441;28;20879;-84
2021/05/21 07:07:53;;;;;;;1999.90;999.90;;;15.70;99.90;;;;;;5037036;28;20202;-83
2021/05/21 07:10:19;;;;;;;1999.90;999.90;;;15.80;99.90;;;;;;5040784;28;20180;-84
2021/05/21 07:12:45;;;;;;;1999.90;999.90;;;15.80;97.50;;;;;;5040747;28;20403;-84
2021/05/21 07:15:14;;;;;;;1999.90;999.90;;;15.90;99.90;;;;;;5039839;28;20197;-82
2021/05/21 07:17:40;;;;;;;1999.90;999.90;;;16.10;97.30;;;;;;5041588;28;20497;-83
2021/05/21 07:20:06;;;;;;;1999.90;999.90;;;16.20;90.80;;;;;;5040049;28;20925;-84
2021/05/21 07:22:32;;;;;;;1999.90;999.90;;;16.10;92.20;;;;;;5040586;28;20256;-83
2021/05/21 07:24:58;;;;;;;1999.90;999.90;;;16.00;93.10;;;;;;5041334;28;20434;-85
2021/05/21 07:27:26;;;;;;;1999.90;999.90;;;16.10;93.00;;;;;;5041187;28;20176;-84
2021/05/21 07:29:52;;;;;;;1999.90;999.90;;;16.10;89.70;;;;;;5040998;28;20225;-83
2021/05/21 07:32:20;;;;;;;1999.90;999.90;;;16.00;86.00;;;;;;5041509;28;20420;-85
2021/05/21 07:34:46;;;;;;;1999.90;999.90;;;16.00;81.70;;;;;;5040481;28;20261;-85
2021/05/21 07:37:12;;;;;;;1999.90;999.90;;;16.10;80.40;;;;;;5041259;28;20440;-85
2021/05/21 07:39:38;;;;;;;1999.90;999.90;;;16.10;69.70;;;;;;5041636;28;20177;-85
2021/05/21 07:42:03;;;;;;;1999.90;999.90;;;16.10;66.10;;;;;;5040808;28;20252;-84
2021/05/21 07:44:29;;;;;;;1999.90;999.90;;;16.10;69.50;;;;;;5041125;28;20765;-86
2021/05/21 07:46:58;;;;;;;1999.90;999.90;;;16.20;59.10;;;;;;5040465;28;20165;-85
2021/05/21 07:49:24;;;;;;;1999.90;999.90;;;16.20;62.10;;;;;;5042998;28;20843;-86
2021/05/21 07:51:56;;;;;;;1999.90;999.90;;;16.30;66.80;;;;;;5039916;28;20496;-84
2021/05/21 07:54:22;;;;;;;1999.90;999.90;;;16.20;69.80;;;;;;5040856;28;20400;-85
2021/05/21 07:57:11;;;;;;;;;;;;;;;;;;;;;
2021/05/21 07:59:40;;;;;;;1999.90;999.90;;;16.30;69.90;;;;;;5041428;28;20486;-83
2021/05/21 08:02:12;;;;;;;1999.90;999.90;;;16.60;73.50;;;;;;5039708;28;20412;-83
2021/05/21 08:04:37;;;;;;;1999.90;999.90;;;16.70;63.20;;;;;;5038146;28;20403;-83
2021/05/21 08:07:03;;;;;;;1999.90;999.90;;;16.70;39.80;;;;;;5038698;28;20463;-84
2021/05/21 08:09:30;;;;;;;1999.90;999.90;;;16.70;24.50;;;;;;5038912;28;20425;-82
2021/05/21 08:11:56;;;;;;;1999.90;999.90;;;16.90;21.70;;;;;;5037812;28;20925;-83
2021/05/21 08:14:21;;;;;;;1999.90;999.90;;;16.90;16.10;;;;;;5037473;28;20414;-82
2021/05/21 08:16:50;;;;;;;1999.90;999.90;;;17.00;21.40;;;;;;5037647;28;20171;-81
2021/05/21 08:19:15;;;;;;;1999.90;999.90;;;17.00;23.50;;;;;;5037632;28;20187;-83
2021/05/21 08:21:41;;;;;;;1999.90;999.90;;;17.00;23.60;;;;;;5035294;28;20476;-82
2021/05/21 08:24:07;;;;;;;1999.90;999.90;;;16.90;21.40;;;;;;5036707;28;20174;-84
2021/05/21 08:26:33;;;;;;;1999.90;999.90;;;16.60;21.80;;;;;;5036146;28;20262;-82
2021/05/21 08:28:59;;;;;;;1999.90;999.90;;;16.50;23.40;;;;;;5036191;28;20512;-82
2021/05/21 08:31:25;;;;;;;1999.90;999.90;;;16.50;20.90;;;;;;5036066;28;20199;-83
2021/05/21 08:33:52;;;;;;;1999.90;999.90;;;16.40;21.80;;;;;;5038152;28;20161;-82
2021/05/21 08:36:21;;;;;;;1999.90;999.90;;;16.30;22.90;;;;;;5039354;28;20430;-83
2021/05/21 08:38:47;;;;;;;1999.90;999.90;;;16.30;23.50;;;;;;5038357;28;20792;-82
2021/05/21 08:41:16;;;;;;;1999.90;999.90;;;16.20;26.20;;;;;;5037703;28;20448;-83
2021/05/21 08:43:45;;;;;;;1999.90;999.90;;;16.20;99.90;;;;;;5036546;28;20410;-82
2021/05/21 08:46:12;;;;;;;1999.90;999.90;;;16.20;99.90;;;;;;5037574;28;20495;-81
2021/05/21 08:48:37;;;;;;;1999.90;999.90;;;16.20;99.90;;;;;;5038925;28;20434;-85
2021/05/21 08:51:03;;;;;;;1999.90;999.90;;;16.30;99.90;;;;;;5038331;28;20776;-85
2021/05/21 08:53:39;;;;;;;1999.90;999.90;;;16.20;99.90;;;;;;5037759;28;20637;-84
2021/05/21 08:56:08;;;;;;;1999.90;999.90;;;16.30;99.90;;;;;;5037576;28;20401;-84
2021/05/21 08:58:35;;;;;;;1999.90;999.90;;;16.20;99.90;;;;;;5036847;28;20438;-82
2021/05/21 09:01:02;;;;;;;1999.90;999.90;;;16.10;99.90;;;;;;5036932;28;20435;-82
2021/05/21 09:03:33;;;;;;;1999.90;999.90;;;16.20;99.90;;;;;;5037675;28;20450;-83
2021/05/21 09:06:17;;;;;;;1999.90;999.90;;;16.20;99.90;;;;;;5038468;28;20410;-82
2021/05/21 09:08:54;;;;;;;1999.90;999.90;;;16.30;99.90;;;;;;5037649;28;20417;-83
2021/05/21 09:11:39;;;;;;;1999.90;999.90;;;16.40;99.90;;;;;;5036408;28;20926;-83
2021/05/21 09:14:14;;;;;;;1999.90;999.90;;;16.50;99.90;;;;;;5037374;28;20388;-83
2021/05/21 09:16:42;;;;;;;1999.90;999.90;;;16.70;99.90;;;;;;5036554;28;20494;-84
2021/05/21 09:19:13;;;;;;;1999.90;999.90;;;16.70;99.90;;;;;;5037359;28;20441;-84
2021/05/21 09:22:01;;;;;;;1999.90;999.90;;;16.80;99.90;;;;;;5037599;28;20434;-84
2021/05/21 09:25:07;;;;;;;1999.90;999.90;;;16.90;99.90;;;;;;5036410;28;20409;-83
2021/05/21 09:27:36;;;;;;;1999.90;999.90;;;17.10;99.90;;;;;;5033020;28;20457;-82
2021/05/21 09:30:03;;;;;;;1999.90;999.90;;;17.10;99.90;;;;;;5037259;28;20532;-84
2021/05/21 09:32:30;;;;;;;1999.90;999.90;;;17.20;99.90;;;;;;5036039;28;20430;-83
2021/05/21 09:35:11;;;;;;;1999.90;999.90;;;17.30;99.90;;;;;;5035918;28;20428;-82
2021/05/21 09:37:43;;;;;;;1999.90;999.90;;;17.40;99.90;;;;;;5037208;28;20429;-84
2021/05/21 09:40:20;;;;;;;1999.90;999.90;;;17.30;1.00;;;;;;5038229;28;20450;-84
2021/05/21 09:43:12;;;;;;;1999.90;999.90;;;17.10;7.80;;;;;;5037791;28;20421;-84
2021/05/21 09:45:40;;;;;;;1999.90;999.90;;;17.00;7.90;;;;;;5035900;28;20409;-83
2021/05/21 09:48:11;;;;;;;1999.90;999.90;;;16.90;6.50;;;;;;5037063;28;20968;-85
2021/05/21 09:50:49;;;;;;;1999.90;999.90;;;17.00;5.00;;;;;;5038345;28;20444;-84
2021/05/21 09:53:25;;;;;;;1999.90;999.90;;;17.10;5.80;;;;;;5037913;28;20934;-83
2021/05/21 09:55:52;;;;;;;1999.90;999.90;;;17.50;7.40;;;;;;5038186;28;20399;-83
2021/05/21 09:58:33;;;;;;;1999.90;999.90;;;17.80;3.50;;;;;;5019731;28;20463;-83
2021/05/21 10:01:24;;;;;;;1999.90;999.90;;;17.80;1.00;;;;;;5037354;28;20532;-83
2021/05/21 10:03:55;;;;;;;1999.90;999.90;;;17.70;1.00;;;;;;5036339;28;20419;-83
2021/05/21 10:06:30;;;;;;;1999.90;999.90;;;17.80;1.10;;;;;;5036138;28;20406;-83
2021/05/21 10:09:08;;;;;;;1999.90;999.90;;;18.00;1.00;;;;;;5036849;28;20965;-84
2021/05/21 10:11:44;;;;;;;1999.90;999.90;;;18.10;1.00;;;;;;5035436;28;20410;-83
2021/05/21 10:14:10;;;;;;;1999.90;999.90;;;18.00;1.00;;;;;;5037188;28;20444;-86
2021/05/21 10:16:37;;;;;;;1999.90;999.90;;;18.00;1.00;;;;;;5036881;28;20408;-84
2021/05/21 10:19:04;;;;;;;1999.90;999.90;;;18.20;1.00;;;;;;5036428;28;20683;-85
2021/05/21 10:21:30;;;;;;;1999.90;999.90;;;18.50;1.00;;;;;;5038035;28;20857;-85
2021/05/21 10:24:07;;;;;;;1999.90;999.90;;;18.90;1.00;;;;;;5036970;28;20813;-85
2021/05/21 10:26:40;;;;;;;1999.90;999.90;;;19.00;1.00;;;;;;5037717;28;20914;-84
2021/05/21 10:29:17;;;;;;;1999.90;999.90;;;19.00;1.00;;;;;;5036921;28;20439;-83
2021/05/21 10:31:46;;;;;;;1999.90;999.90;;;18.90;1.00;;;;;;5036652;28;20946;-83
2021/05/21 10:34:22;;;;;;;1999.90;999.90;;;19.00;1.00;;;;;;5036798;28;20427;-85
2021/05/21 10:36:51;;;;;;;1999.90;999.90;;;19.20;1.00;;;;;;5037861;28;20498;-85
2021/05/21 10:39:22;;;;;;;1999.90;999.90;;;19.70;1.00;;;;;;5037509;28;20506;-84
2021/05/21 10:41:53;;;;;;;1999.90;999.90;;;19.70;1.00;;;;;;5035656;28;20482;-83
2021/05/21 10:44:26;;;;;;;1999.90;999.90;;;19.50;1.00;;;;;;5036973;28;20417;-85
2021/05/21 10:47:28;;;;;;;1999.90;999.90;;;19.50;1.00;;;;;;5036759;28;20498;-85
2021/05/21 10:50:02;;;;;;;1999.90;999.90;;;19.40;1.00;;;;;;5035754;28;20411;-83
2021/05/21 10:52:56;;;;;;;1999.90;999.90;;;19.70;1.00;;;;;;5034498;28;20443;-85
2021/05/21 10:55:40;;;;;;;1999.90;999.90;;;19.70;1.00;;;;;;5017848;28;20941;-85
2021/05/21 10:58:16;;;;;;;1999.90;999.90;;;19.70;1.00;;;;;;5037816;28;20494;-85
2021/05/21 11:01:04;;;;;;;1999.90;999.90;;;19.70;1.00;;;;;;5037063;28;20559;-85
2021/05/21 11:03:30;;;;;;;1999.90;999.90;;;19.50;1.00;;;;;;5036142;28;20503;-86
2021/05/21 11:06:25;;;;;;;1999.90;999.90;;;19.50;1.00;;;;;;5037897;28;20489;-86
2021/05/21 11:09:17;;;;;;;1999.90;999.90;;;19.20;1.00;;;;;;5035782;28;20979;-86
2021/05/21 11:11:47;;;;;;;1999.90;999.90;;;19.20;1.00;;;;;;5035772;28;20422;-86
2021/05/21 11:14:21;;;;;;;1999.90;999.90;;;19.50;1.00;;;;;;5037318;28;20473;-83
2021/05/21 11:16:57;;;;;;;1999.90;999.90;;;19.50;1.00;;;;;;5035369;28;20411;-83
2021/05/21 11:19:31;;;;;;;1999.90;999.90;;;19.60;1.00;;;;;;5035996;28;20463;-85
2021/05/21 11:22:17;;;;;;;1999.90;999.90;;;19.80;1.00;;;;;;5038193;28;20440;-84
2021/05/21 11:24:47;;;;;;;1999.90;999.90;;;20.00;1.00;;;;;;5037593;28;20416;-86
2021/05/21 11:27:16;;;;;;;1999.90;999.90;;;19.90;1.00;;;;;;5037965;28;20400;-85
2021/05/21 11:29:50;;;;;;;1999.90;999.90;;;19.80;1.00;;;;;;5037392;28;20416;-85
2021/05/21 11:34:54;;;;;;;1999.90;999.90;;;19.90;1.00;;;;;;5131139;22;20534;-81
2021/05/21 11:37:21;;;;;;;1999.90;999.90;;;19.60;1.00;;;;;;5037653;28;20399;-82
2021/05/21 11:39:47;;;;;;;1999.90;999.90;;;19.50;1.00;;;;;;5035795;28;20170;-82
2021/05/21 11:42:13;;;;;;;1999.90;999.90;;;19.70;1.00;;;;;;5037172;28;20854;-82
2021/05/21 11:44:45;;;;;;;1999.90;999.90;;;19.80;1.00;;;;;;5037084;28;20442;-82
2021/05/21 11:47:11;;;;;;;1999.90;999.90;;;19.70;1.00;;;;;;5036772;28;20150;-82
2021/05/21 11:49:36;;;;;;;1999.90;999.90;;;19.40;1.00;;;;;;5035977;28;20411;-81
2021/05/21 11:52:07;;;;;;;1999.90;999.90;;;19.40;1.00;;;;;;5036328;28;20165;-82
2021/05/21 11:54:38;;;;;;;1999.90;999.90;;;19.30;1.00;;;;;;5038431;28;20249;-82
2021/05/21 11:57:04;;;;;;;1999.90;999.90;;;19.80;1.00;;;;;;5039722;28;20392;-82
2021/05/21 11:59:30;;;;;;;1999.90;999.90;;;20.40;1.00;;;;;;5040523;28;20827;-81
2021/05/21 12:02:03;;;;;;;1999.90;999.90;;;21.00;1.00;;;;;;5039611;28;20437;-83
2021/05/21 12:04:31;;;;;;;1999.90;999.90;;;21.40;1.00;;;;;;5040069;28;20562;-82
2021/05/21 12:06:58;;;;;;;1999.90;999.90;;;21.60;1.00;;;;;;5038256;28;20761;-81
2021/05/21 12:09:25;;;;;;;1999.90;999.90;;;21.40;1.00;;;;;;5036076;28;20438;-81
2021/05/21 12:11:54;;;;;;;1999.90;999.90;;;20.90;1.00;;;;;;5036381;28;20416;-81
2021/05/21 12:14:22;;;;;;;1999.90;999.90;;;20.70;1.00;;;;;;5036804;28;20920;-81
2021/05/21 12:16:50;;;;;;;1999.90;999.90;;;20.60;1.00;;;;;;5036743;28;20773;-82
2021/05/21 12:19:18;;;;;;;1999.90;999.90;;;20.60;1.00;;;;;;5036707;28;20478;-82